Terminal Aerodrome Forecast
Issued by NWS

Home | Current Version | Previous Version | Text Only | Print | Product List | Glossary On
Versions: 1 2 3 4 5 6 7 8 9 10 11 12 13 14 15 16
966
FTUS46 KMTR 161739
TAFMRY
TAF
KMRY 161739Z 1618/1718 24007KT P6SM OVC020
     FM161930 23010KT P6SM FEW020
     FM170200 23007KT P6SM OVC010
     FM170400 23004KT P6SM OVC007
     FM171200 VRB03KT 4SM BR OVC003
     FM171600 VRB03KT P6SM OVC007=

USA.gov is the U.S. government's official web portal to all federal, state and local government web resources and services.